This is the latest recevied weather packets stored in our database for station/object ZL2VAX. If no packets are shown the sender has not sent any weather packets the latest 10 day(s).
| Time | Temp. | Humidity | Pressure | Rain* | Wind** | Luminosity | Snow |
|---|---|---|---|---|---|---|---|
| 1777560399 | 2.78° C | 95% | 1039.7 hPa | 0 mm | - | - | - |
| 1777559153 | 2.78° C | 95% | 1039.8 hPa | 0 mm | - | - | - |
| 1777558551 | 3.33° C | 95% | 1040 hPa | 0 mm | - | - | - |
| 1777545355 | 4.44° C | 93% | 1040 hPa | 0 mm | - | - | - |
| 1777541135 | 4.44° C | 91% | 1039.7 hPa | 0 mm | - | - | - |
| 1777537520 | 6.67° C | 90% | 1039.5 hPa | 0 mm | - | - | - |
| 1777535772 | 7.22° C | 89% | 1039.6 hPa | 0 mm | - | - | - |
| 1777530952 | 8.33° C | 87% | 1039 hPa | 0 mm | - | - | - |
| 1777523721 | 13.33° C | 67% | 1038.1 hPa | 0 mm | - | - | - |
| 1777522580 | 13.33° C | 64% | 1038 hPa | 0 mm | - | - | - |
| 1777521372 | 13.89° C | 62% | 1037.9 hPa | 0 mm | - | - | - |
| 1777520165 | 15° C | 59% | 1037.9 hPa | 0 mm | - | - | - |
| 1777519562 | 14.44° C | 64% | 1037.8 hPa | 0 mm | - | - | - |
| 1777515364 | 14.44° C | 68% | 1037.8 hPa | 0 mm | - | - | - |
| 1777513536 | 14.44° C | 66% | 1037.8 hPa | 0 mm | - | - | - |
| 1777512954 | 13.89° C | 69% | 1038 hPa | 0 mm | - | - | - |
| 1777512331 | 13.89° C | 68% | 1037.9 hPa | 0 mm | - | - | - |
| 1777509339 | 14.44° C | 69% | 1037.8 hPa | 0 mm | - | - | - |
| 1777508716 | 14.44° C | 71% | 1037.8 hPa | 0 mm | - | - | - |
| 1777508173 | 15.56° C | 70% | 1037.9 hPa | 0 mm | - | - | - |
| 1777507591 | 15.56° C | 72% | 1038.1 hPa | 0 mm | - | - | - |
| 1777506386 | 13.33° C | 75% | 1038.2 hPa | 0 mm | - | - | - |
| 1777503352 | 15.56° C | 72% | 1037.9 hPa | 0 mm | - | - | - |
| 1777497327 | 13.33° C | 78% | 1037 hPa | 0 mm | - | - | - |
| 1777494916 | 12.78° C | 80% | 1036.5 hPa | 0 mm | - | - | - |
* Rain latest hour (hover to see other rain measurements)
** Current wind speed in m/s (hover to see current wind gust speed)